sensor_id;sensor_type;location;lat;lon;timestamp;P1;durP1;ratioP1;P2;durP2;ratioP2
23812;SDS011;12087;45.190;5.688;2023-07-20T00:01:48;6.05;;;2.35;;
23812;SDS011;12087;45.190;5.688;2023-07-20T00:07:12;9.15;;;3.03;;
23812;SDS011;12087;45.190;5.688;2023-07-20T00:12:34;6.30;;;2.13;;
23812;SDS011;12087;45.190;5.688;2023-07-20T00:17:57;4.75;;;2.47;;
23812;SDS011;12087;45.190;5.688;2023-07-20T00:23:20;4.72;;;2.63;;
23812;SDS011;12087;45.190;5.688;2023-07-20T00:28:42;4.47;;;2.65;;
23812;SDS011;12087;45.190;5.688;2023-07-20T00:34:05;3.90;;;2.30;;
23812;SDS011;12087;45.190;5.688;2023-07-20T00:39:28;4.63;;;2.72;;
23812;SDS011;12087;45.190;5.688;2023-07-20T00:44:51;3.97;;;2.30;;
23812;SDS011;12087;45.190;5.688;2023-07-20T00:50:13;5.32;;;2.25;;
23812;SDS011;12087;45.190;5.688;2023-07-20T00:55:36;3.20;;;2.33;;
23812;SDS011;12087;45.190;5.688;2023-07-20T01:00:59;6.32;;;2.40;;
23812;SDS011;12087;45.190;5.688;2023-07-20T01:06:25;3.90;;;2.38;;
23812;SDS011;12087;45.190;5.688;2023-07-20T01:11:54;3.97;;;2.47;;
23812;SDS011;12087;45.190;5.688;2023-07-20T01:17:23;4.25;;;2.85;;
23812;SDS011;12087;45.190;5.688;2023-07-20T01:22:57;5.20;;;2.83;;
23812;SDS011;12087;45.190;5.688;2023-07-20T01:28:48;7.47;;;2.42;;
23812;SDS011;12087;45.190;5.688;2023-07-20T01:34:31;8.15;;;2.78;;
23812;SDS011;12087;45.190;5.688;2023-07-20T01:39:55;4.63;;;2.78;;
23812;SDS011;12087;45.190;5.688;2023-07-20T01:45:17;5.97;;;2.58;;
23812;SDS011;12087;45.190;5.688;2023-07-20T01:50:42;6.47;;;2.88;;
23812;SDS011;12087;45.190;5.688;2023-07-20T01:56:05;3.83;;;2.97;;
23812;SDS011;12087;45.190;5.688;2023-07-20T02:01:27;5.00;;;2.80;;
23812;SDS011;12087;45.190;5.688;2023-07-20T02:06:51;3.92;;;2.70;;
23812;SDS011;12087;45.190;5.688;2023-07-20T02:12:13;4.78;;;2.97;;
23812;SDS011;12087;45.190;5.688;2023-07-20T02:17:35;3.60;;;2.80;;
23812;SDS011;12087;45.190;5.688;2023-07-20T02:23:01;4.88;;;2.97;;
23812;SDS011;12087;45.190;5.688;2023-07-20T02:28:24;4.07;;;2.97;;
23812;SDS011;12087;45.190;5.688;2023-07-20T02:33:46;7.95;;;2.70;;
23812;SDS011;12087;45.190;5.688;2023-07-20T02:39:10;4.72;;;2.85;;
23812;SDS011;12087;45.190;5.688;2023-07-20T02:44:32;4.07;;;2.45;;
23812;SDS011;12087;45.190;5.688;2023-07-20T02:49:54;4.47;;;2.70;;
23812;SDS011;12087;45.190;5.688;2023-07-20T02:55:18;4.57;;;2.80;;
23812;SDS011;12087;45.190;5.688;2023-07-20T03:00:42;5.18;;;2.85;;
23812;SDS011;12087;45.190;5.688;2023-07-20T03:06:04;4.90;;;2.60;;
23812;SDS011;12087;45.190;5.688;2023-07-20T03:11:31;5.97;;;2.88;;
23812;SDS011;12087;45.190;5.688;2023-07-20T03:16:54;5.28;;;2.85;;
23812;SDS011;12087;45.190;5.688;2023-07-20T03:22:17;3.83;;;2.60;;
23812;SDS011;12087;45.190;5.688;2023-07-20T03:27:41;5.25;;;2.67;;
23812;SDS011;12087;45.190;5.688;2023-07-20T03:33:03;4.95;;;2.35;;
23812;SDS011;12087;45.190;5.688;2023-07-20T03:38:25;5.32;;;2.60;;
23812;SDS011;12087;45.190;5.688;2023-07-20T03:43:49;4.18;;;2.40;;
23812;SDS011;12087;45.190;5.688;2023-07-20T03:49:12;5.03;;;2.83;;
23812;SDS011;12087;45.190;5.688;2023-07-20T03:54:34;6.22;;;3.45;;
23812;SDS011;12087;45.190;5.688;2023-07-20T03:59:57;4.97;;;2.55;;
23812;SDS011;12087;45.190;5.688;2023-07-20T04:05:20;4.32;;;2.38;;
23812;SDS011;12087;45.190;5.688;2023-07-20T04:10:43;3.65;;;2.60;;
23812;SDS011;12087;45.190;5.688;2023-07-20T04:16:07;7.38;;;2.70;;
23812;SDS011;12087;45.190;5.688;2023-07-20T04:21:29;2.72;;;2.20;;
23812;SDS011;12087;45.190;5.688;2023-07-20T04:26:51;5.40;;;2.70;;
23812;SDS011;12087;45.190;5.688;2023-07-20T04:32:15;4.38;;;2.50;;
23812;SDS011;12087;45.190;5.688;2023-07-20T04:37:38;7.90;;;2.60;;
23812;SDS011;12087;45.190;5.688;2023-07-20T04:43:05;5.53;;;2.92;;
23812;SDS011;12087;45.190;5.688;2023-07-20T04:48:29;4.57;;;2.65;;
23812;SDS011;12087;45.190;5.688;2023-07-20T04:53:51;6.45;;;2.50;;
23812;SDS011;12087;45.190;5.688;2023-07-20T04:59:13;3.80;;;2.20;;
23812;SDS011;12087;45.190;5.688;2023-07-20T05:04:37;4.22;;;2.20;;
23812;SDS011;12087;45.190;5.688;2023-07-20T05:09:59;5.78;;;2.20;;
23812;SDS011;12087;45.190;5.688;2023-07-20T05:15:22;4.47;;;2.42;;
23812;SDS011;12087;45.190;5.688;2023-07-20T05:20:46;4.95;;;2.50;;
23812;SDS011;12087;45.190;5.688;2023-07-20T05:26:09;5.05;;;2.28;;
23812;SDS011;12087;45.190;5.688;2023-07-20T05:31:31;3.97;;;2.40;;
23812;SDS011;12087;45.190;5.688;2023-07-20T05:36:55;5.75;;;2.75;;
23812;SDS011;12087;45.190;5.688;2023-07-20T05:42:17;4.43;;;2.20;;
23812;SDS011;12087;45.190;5.688;2023-07-20T05:47:39;5.38;;;2.55;;
23812;SDS011;12087;45.190;5.688;2023-07-20T05:53:04;7.38;;;2.30;;
23812;SDS011;12087;45.190;5.688;2023-07-20T05:58:26;10.07;;;3.00;;
23812;SDS011;12087;45.190;5.688;2023-07-20T06:03:49;4.40;;;2.15;;
23812;SDS011;12087;45.190;5.688;2023-07-20T06:09:12;7.00;;;2.72;;
23812;SDS011;12087;45.190;5.688;2023-07-20T06:14:35;15.88;;;3.50;;
23812;SDS011;12087;45.190;5.688;2023-07-20T06:19:57;9.43;;;2.70;;
23812;SDS011;12087;45.190;5.688;2023-07-20T06:25:21;5.90;;;2.53;;
23812;SDS011;12087;45.190;5.688;2023-07-20T06:30:43;12.93;;;3.35;;
23812;SDS011;12087;45.190;5.688;2023-07-20T06:36:05;6.25;;;2.47;;
23812;SDS011;12087;45.190;5.688;2023-07-20T06:41:29;5.68;;;2.85;;
23812;SDS011;12087;45.190;5.688;2023-07-20T06:46:51;7.72;;;2.42;;
23812;SDS011;12087;45.190;5.688;2023-07-20T06:52:13;5.75;;;2.90;;
23812;SDS011;12087;45.190;5.688;2023-07-20T06:57:37;6.68;;;2.42;;
23812;SDS011;12087;45.190;5.688;2023-07-20T07:03:00;8.77;;;2.67;;
23812;SDS011;12087;45.190;5.688;2023-07-20T07:08:22;9.55;;;2.45;;
23812;SDS011;12087;45.190;5.688;2023-07-20T07:13:46;6.55;;;2.50;;
23812;SDS011;12087;45.190;5.688;2023-07-20T07:19:10;6.85;;;2.88;;
23812;SDS011;12087;45.190;5.688;2023-07-20T07:24:33;7.25;;;3.15;;
23812;SDS011;12087;45.190;5.688;2023-07-20T07:29:57;8.38;;;2.65;;
23812;SDS011;12087;45.190;5.688;2023-07-20T07:35:19;5.05;;;2.75;;
23812;SDS011;12087;45.190;5.688;2023-07-20T07:40:42;8.68;;;3.00;;
23812;SDS011;12087;45.190;5.688;2023-07-20T07:46:05;4.72;;;2.58;;
23812;SDS011;12087;45.190;5.688;2023-07-20T07:51:27;7.63;;;3.00;;
23812;SDS011;12087;45.190;5.688;2023-07-20T07:56:50;7.85;;;3.22;;
23812;SDS011;12087;45.190;5.688;2023-07-20T08:02:14;7.45;;;2.33;;
23812;SDS011;12087;45.190;5.688;2023-07-20T08:07:36;7.93;;;2.38;;
23812;SDS011;12087;45.190;5.688;2023-07-20T08:12:58;4.70;;;2.30;;
23812;SDS011;12087;45.190;5.688;2023-07-20T08:18:22;4.78;;;2.35;;
23812;SDS011;12087;45.190;5.688;2023-07-20T08:23:44;2.90;;;2.10;;
23812;SDS011;12087;45.190;5.688;2023-07-20T08:29:07;5.05;;;1.90;;
23812;SDS011;12087;45.190;5.688;2023-07-20T08:34:31;6.18;;;2.17;;
23812;SDS011;12087;45.190;5.688;2023-07-20T08:39:53;4.72;;;1.60;;
23812;SDS011;12087;45.190;5.688;2023-07-20T08:45:15;8.30;;;2.88;;
23812;SDS011;12087;45.190;5.688;2023-07-20T08:50:40;3.80;;;1.60;;
23812;SDS011;12087;45.190;5.688;2023-07-20T08:56:04;3.53;;;1.80;;
23812;SDS011;12087;45.190;5.688;2023-07-20T09:01:28;6.47;;;2.10;;
23812;SDS011;12087;45.190;5.688;2023-07-20T09:06:52;4.05;;;1.42;;
23812;SDS011;12087;45.190;5.688;2023-07-20T09:12:14;3.10;;;1.73;;
23812;SDS011;12087;45.190;5.688;2023-07-20T09:17:37;5.75;;;2.10;;
23812;SDS011;12087;45.190;5.688;2023-07-20T09:23:00;7.30;;;1.60;;
23812;SDS011;12087;45.190;5.688;2023-07-20T09:28:26;5.97;;;1.80;;
23812;SDS011;12087;45.190;5.688;2023-07-20T09:33:50;2.97;;;1.70;;
23812;SDS011;12087;45.190;5.688;2023-07-20T09:39:15;3.60;;;1.80;;
23812;SDS011;12087;45.190;5.688;2023-07-20T09:44:38;3.63;;;1.60;;
23812;SDS011;12087;45.190;5.688;2023-07-20T09:50:01;3.40;;;1.58;;
23812;SDS011;12087;45.190;5.688;2023-07-20T09:55:25;3.63;;;1.75;;
23812;SDS011;12087;45.190;5.688;2023-07-20T10:00:48;4.95;;;1.58;;
23812;SDS011;12087;45.190;5.688;2023-07-20T10:06:14;2.20;;;1.33;;
23812;SDS011;12087;45.190;5.688;2023-07-20T10:11:48;3.57;;;1.43;;
23812;SDS011;12087;45.190;5.688;2023-07-20T10:17:12;2.65;;;1.52;;
23812;SDS011;12087;45.190;5.688;2023-07-20T10:22:36;2.88;;;1.50;;
23812;SDS011;12087;45.190;5.688;2023-07-20T10:28:01;5.63;;;1.63;;
23812;SDS011;12087;45.190;5.688;2023-07-20T10:33:23;2.35;;;1.40;;
23812;SDS011;12087;45.190;5.688;2023-07-20T10:38:52;1.73;;;1.25;;
23812;SDS011;12087;45.190;5.688;2023-07-20T10:44:19;3.85;;;1.85;;
23812;SDS011;12087;45.190;5.688;2023-07-20T10:55:20;3.42;;;1.88;;
23812;SDS011;12087;45.190;5.688;2023-07-20T11:00:58;5.65;;;1.65;;
23812;SDS011;12087;45.190;5.688;2023-07-20T11:06:31;2.60;;;1.60;;
23812;SDS011;12087;45.190;5.688;2023-07-20T11:12:08;6.13;;;2.28;;
23812;SDS011;12087;45.190;5.688;2023-07-20T11:17:32;4.28;;;1.67;;
23812;SDS011;12087;45.190;5.688;2023-07-20T11:22:56;6.32;;;1.77;;
23812;SDS011;12087;45.190;5.688;2023-07-20T11:28:18;3.50;;;1.52;;
23812;SDS011;12087;45.190;5.688;2023-07-20T11:33:42;4.05;;;1.45;;
23812;SDS011;12087;45.190;5.688;2023-07-20T11:39:04;4.07;;;1.63;;
23812;SDS011;12087;45.190;5.688;2023-07-20T11:44:30;7.90;;;2.10;;
23812;SDS011;12087;45.190;5.688;2023-07-20T11:49:53;10.65;;;2.38;;
23812;SDS011;12087;45.190;5.688;2023-07-20T11:55:16;2.75;;;1.60;;
23812;SDS011;12087;45.190;5.688;2023-07-20T12:00:39;3.78;;;1.85;;
23812;SDS011;12087;45.190;5.688;2023-07-20T12:06:09;3.55;;;1.70;;
23812;SDS011;12087;45.190;5.688;2023-07-20T12:11:33;4.07;;;1.67;;
23812;SDS011;12087;45.190;5.688;2023-07-20T12:16:55;2.33;;;1.85;;
23812;SDS011;12087;45.190;5.688;2023-07-20T12:22:19;3.78;;;2.05;;
23812;SDS011;12087;45.190;5.688;2023-07-20T12:27:41;3.45;;;1.60;;
23812;SDS011;12087;45.190;5.688;2023-07-20T12:33:07;3.05;;;1.40;;
23812;SDS011;12087;45.190;5.688;2023-07-20T12:38:31;7.22;;;1.90;;
23812;SDS011;12087;45.190;5.688;2023-07-20T12:43:53;3.42;;;1.60;;
23812;SDS011;12087;45.190;5.688;2023-07-20T12:49:17;9.02;;;1.65;;
23812;SDS011;12087;45.190;5.688;2023-07-20T12:54:41;2.20;;;1.42;;
23812;SDS011;12087;45.190;5.688;2023-07-20T13:00:04;3.83;;;1.58;;
23812;SDS011;12087;45.190;5.688;2023-07-20T13:05:29;3.80;;;1.50;;
23812;SDS011;12087;45.190;5.688;2023-07-20T13:10:54;3.90;;;1.50;;
23812;SDS011;12087;45.190;5.688;2023-07-20T13:16:17;5.65;;;2.10;;
23812;SDS011;12087;45.190;5.688;2023-07-20T13:21:39;3.45;;;1.98;;
23812;SDS011;12087;45.190;5.688;2023-07-20T13:27:03;2.50;;;1.55;;
23812;SDS011;12087;45.190;5.688;2023-07-20T13:32:25;5.47;;;1.90;;
23812;SDS011;12087;45.190;5.688;2023-07-20T13:37:48;2.92;;;1.70;;
23812;SDS011;12087;45.190;5.688;2023-07-20T13:43:12;6.03;;;1.70;;
23812;SDS011;12087;45.190;5.688;2023-07-20T13:48:34;2.08;;;1.50;;
23812;SDS011;12087;45.190;5.688;2023-07-20T13:53:56;3.15;;;2.17;;
23812;SDS011;12087;45.190;5.688;2023-07-20T13:59:20;4.22;;;1.70;;
23812;SDS011;12087;45.190;5.688;2023-07-20T14:04:42;3.47;;;1.80;;
23812;SDS011;12087;45.190;5.688;2023-07-20T14:10:05;7.55;;;2.03;;
23812;SDS011;12087;45.190;5.688;2023-07-20T14:15:29;2.90;;;1.70;;
23812;SDS011;12087;45.190;5.688;2023-07-20T14:20:51;3.65;;;1.65;;
23812;SDS011;12087;45.190;5.688;2023-07-20T14:26:13;7.60;;;1.63;;
23812;SDS011;12087;45.190;5.688;2023-07-20T14:31:37;5.70;;;1.50;;
23812;SDS011;12087;45.190;5.688;2023-07-20T14:36:59;8.60;;;1.50;;
23812;SDS011;12087;45.190;5.688;2023-07-20T14:42:21;5.25;;;1.48;;
23812;SDS011;12087;45.190;5.688;2023-07-20T14:47:45;5.53;;;1.65;;
23812;SDS011;12087;45.190;5.688;2023-07-20T14:53:13;5.60;;;1.50;;
23812;SDS011;12087;45.190;5.688;2023-07-20T14:58:36;1.90;;;1.60;;
23812;SDS011;12087;45.190;5.688;2023-07-20T15:03:59;2.83;;;1.63;;
23812;SDS011;12087;45.190;5.688;2023-07-20T15:09:21;4.03;;;1.52;;
23812;SDS011;12087;45.190;5.688;2023-07-20T15:14:44;3.30;;;1.77;;
23812;SDS011;12087;45.190;5.688;2023-07-20T15:20:26;1.85;;;1.50;;
23812;SDS011;12087;45.190;5.688;2023-07-20T15:25:48;2.63;;;1.50;;
23812;SDS011;12087;45.190;5.688;2023-07-20T15:31:10;3.63;;;1.85;;
23812;SDS011;12087;45.190;5.688;2023-07-20T15:36:34;3.42;;;1.75;;
23812;SDS011;12087;45.190;5.688;2023-07-20T15:41:56;4.18;;;1.60;;
23812;SDS011;12087;45.190;5.688;2023-07-20T15:47:19;5.60;;;1.88;;
23812;SDS011;12087;45.190;5.688;2023-07-20T15:52:43;7.05;;;1.63;;
23812;SDS011;12087;45.190;5.688;2023-07-20T15:58:06;7.30;;;1.95;;
23812;SDS011;12087;45.190;5.688;2023-07-20T16:03:28;4.07;;;2.08;;
23812;SDS011;12087;45.190;5.688;2023-07-20T16:08:51;6.32;;;1.58;;
23812;SDS011;12087;45.190;5.688;2023-07-20T16:14:18;4.38;;;1.40;;
23812;SDS011;12087;45.190;5.688;2023-07-20T16:19:46;11.98;;;1.80;;
23812;SDS011;12087;45.190;5.688;2023-07-20T16:25:10;7.60;;;1.88;;
23812;SDS011;12087;45.190;5.688;2023-07-20T16:30:32;5.57;;;1.85;;
23812;SDS011;12087;45.190;5.688;2023-07-20T16:35:55;3.33;;;1.38;;
23812;SDS011;12087;45.190;5.688;2023-07-20T16:41:19;4.80;;;1.73;;
23812;SDS011;12087;45.190;5.688;2023-07-20T16:46:44;2.67;;;1.25;;
23812;SDS011;12087;45.190;5.688;2023-07-20T16:52:07;2.05;;;1.52;;
23812;SDS011;12087;45.190;5.688;2023-07-20T16:57:31;3.88;;;1.67;;
23812;SDS011;12087;45.190;5.688;2023-07-20T17:02:53;6.57;;;1.45;;
23812;SDS011;12087;45.190;5.688;2023-07-20T17:08:15;2.33;;;1.58;;
23812;SDS011;12087;45.190;5.688;2023-07-20T17:13:39;3.13;;;1.45;;
23812;SDS011;12087;45.190;5.688;2023-07-20T17:19:01;5.75;;;1.80;;
23812;SDS011;12087;45.190;5.688;2023-07-20T17:24:24;5.53;;;1.35;;
23812;SDS011;12087;45.190;5.688;2023-07-20T17:29:48;5.85;;;1.30;;
23812;SDS011;12087;45.190;5.688;2023-07-20T17:35:10;6.13;;;2.20;;
23812;SDS011;12087;45.190;5.688;2023-07-20T17:40:33;12.13;;;2.00;;
23812;SDS011;12087;45.190;5.688;2023-07-20T17:45:57;2.85;;;1.42;;
23812;SDS011;12087;45.190;5.688;2023-07-20T17:51:19;6.00;;;1.42;;
23812;SDS011;12087;45.190;5.688;2023-07-20T17:56:41;5.75;;;2.17;;
23812;SDS011;12087;45.190;5.688;2023-07-20T18:02:06;16.65;;;1.80;;
23812;SDS011;12087;45.190;5.688;2023-07-20T18:07:28;4.20;;;1.58;;
23812;SDS011;12087;45.190;5.688;2023-07-20T18:12:51;6.03;;;1.50;;
23812;SDS011;12087;45.190;5.688;2023-07-20T18:18:15;14.88;;;4.50;;
23812;SDS011;12087;45.190;5.688;2023-07-20T18:23:37;4.03;;;2.25;;
23812;SDS011;12087;45.190;5.688;2023-07-20T18:28:59;8.10;;;2.25;;
23812;SDS011;12087;45.190;5.688;2023-07-20T18:34:23;12.52;;;1.70;;
23812;SDS011;12087;45.190;5.688;2023-07-20T18:39:46;2.22;;;1.23;;
23812;SDS011;12087;45.190;5.688;2023-07-20T18:45:08;4.97;;;1.40;;
23812;SDS011;12087;45.190;5.688;2023-07-20T18:50:34;3.35;;;1.40;;
23812;SDS011;12087;45.190;5.688;2023-07-20T18:55:56;5.75;;;1.65;;
23812;SDS011;12087;45.190;5.688;2023-07-20T19:01:18;2.78;;;1.65;;
23812;SDS011;12087;45.190;5.688;2023-07-20T19:06:42;5.80;;;1.95;;
23812;SDS011;12087;45.190;5.688;2023-07-20T19:12:04;4.22;;;1.65;;
23812;SDS011;12087;45.190;5.688;2023-07-20T19:17:28;5.90;;;1.95;;
23812;SDS011;12087;45.190;5.688;2023-07-20T19:22:53;4.43;;;1.92;;
23812;SDS011;12087;45.190;5.688;2023-07-20T19:28:15;3.50;;;1.65;;
23812;SDS011;12087;45.190;5.688;2023-07-20T19:33:38;2.75;;;1.52;;
23812;SDS011;12087;45.190;5.688;2023-07-20T19:39:02;6.75;;;2.10;;
23812;SDS011;12087;45.190;5.688;2023-07-20T19:44:25;4.25;;;1.52;;
23812;SDS011;12087;45.190;5.688;2023-07-20T19:49:47;3.50;;;1.70;;
23812;SDS011;12087;45.190;5.688;2023-07-20T19:55:11;5.15;;;2.10;;
23812;SDS011;12087;45.190;5.688;2023-07-20T20:00:37;7.15;;;1.73;;
23812;SDS011;12087;45.190;5.688;2023-07-20T20:06:00;2.65;;;1.67;;
23812;SDS011;12087;45.190;5.688;2023-07-20T20:11:24;4.13;;;1.90;;
23812;SDS011;12087;45.190;5.688;2023-07-20T20:16:46;3.70;;;2.10;;
23812;SDS011;12087;45.190;5.688;2023-07-20T20:22:08;3.80;;;2.35;;
23812;SDS011;12087;45.190;5.688;2023-07-20T20:27:32;6.43;;;2.05;;
23812;SDS011;12087;45.190;5.688;2023-07-20T20:32:54;2.70;;;1.52;;
23812;SDS011;12087;45.190;5.688;2023-07-20T20:38:17;3.90;;;1.50;;
23812;SDS011;12087;45.190;5.688;2023-07-20T20:43:40;2.63;;;1.73;;
23812;SDS011;12087;45.190;5.688;2023-07-20T20:49:03;10.30;;;2.00;;
23812;SDS011;12087;45.190;5.688;2023-07-20T20:54:26;4.63;;;1.65;;
23812;SDS011;12087;45.190;5.688;2023-07-20T20:59:49;3.05;;;1.75;;
23812;SDS011;12087;45.190;5.688;2023-07-20T21:05:12;2.90;;;1.60;;
23812;SDS011;12087;45.190;5.688;2023-07-20T21:10:34;3.30;;;1.67;;
23812;SDS011;12087;45.190;5.688;2023-07-20T21:15:59;4.28;;;1.95;;
23812;SDS011;12087;45.190;5.688;2023-07-20T21:21:21;6.55;;;1.92;;
23812;SDS011;12087;45.190;5.688;2023-07-20T21:26:43;4.43;;;1.92;;
23812;SDS011;12087;45.190;5.688;2023-07-20T21:32:07;3.60;;;2.17;;
23812;SDS011;12087;45.190;5.688;2023-07-20T21:37:30;4.15;;;1.80;;
23812;SDS011;12087;45.190;5.688;2023-07-20T21:42:52;4.15;;;2.00;;
23812;SDS011;12087;45.190;5.688;2023-07-20T21:48:16;2.20;;;1.80;;
23812;SDS011;12087;45.190;5.688;2023-07-20T21:53:38;4.43;;;1.83;;
23812;SDS011;12087;45.190;5.688;2023-07-20T21:59:01;3.63;;;2.05;;
23812;SDS011;12087;45.190;5.688;2023-07-20T22:04:25;3.65;;;2.00;;
23812;SDS011;12087;45.190;5.688;2023-07-20T22:09:47;3.90;;;2.10;;
23812;SDS011;12087;45.190;5.688;2023-07-20T22:15:09;3.60;;;2.17;;
23812;SDS011;12087;45.190;5.688;2023-07-20T22:20:34;3.17;;;1.90;;
23812;SDS011;12087;45.190;5.688;2023-07-20T22:25:56;2.63;;;2.03;;
23812;SDS011;12087;45.190;5.688;2023-07-20T22:31:19;3.53;;;2.22;;
23812;SDS011;12087;45.190;5.688;2023-07-20T22:36:43;3.05;;;2.13;;
23812;SDS011;12087;45.190;5.688;2023-07-20T22:42:09;5.80;;;1.90;;
23812;SDS011;12087;45.190;5.688;2023-07-20T22:47:32;2.47;;;1.80;;
23812;SDS011;12087;45.190;5.688;2023-07-20T22:52:57;3.58;;;2.38;;
23812;SDS011;12087;45.190;5.688;2023-07-20T22:58:19;5.70;;;1.90;;
23812;SDS011;12087;45.190;5.688;2023-07-20T23:03:42;3.08;;;1.75;;
23812;SDS011;12087;45.190;5.688;2023-07-20T23:09:06;3.33;;;1.50;;
23812;SDS011;12087;45.190;5.688;2023-07-20T23:14:29;3.13;;;1.70;;
23812;SDS011;12087;45.190;5.688;2023-07-20T23:19:51;2.70;;;1.70;;
23812;SDS011;12087;45.190;5.688;2023-07-20T23:25:16;3.97;;;1.80;;
23812;SDS011;12087;45.190;5.688;2023-07-20T23:30:39;4.57;;;2.20;;
23812;SDS011;12087;45.190;5.688;2023-07-20T23:36:08;4.67;;;2.20;;
23812;SDS011;12087;45.190;5.688;2023-07-20T23:41:32;9.20;;;1.95;;
23812;SDS011;12087;45.190;5.688;2023-07-20T23:46:55;4.22;;;1.88;;
23812;SDS011;12087;45.190;5.688;2023-07-20T23:52:18;6.95;;;2.05;;
23812;SDS011;12087;45.190;5.688;2023-07-20T23:57:43;5.53;;;2.03;;
